Time,TemperatureF,DewpointF,PressureIn,WindDirection,WindDirectionDegrees,WindSpeedMPH,WindSpeedGustMPH,Humidity,HourlyPrecipIn,Conditions,Clouds,dailyrainin,SolarRadiationWatts/m^2,SoftwareType,DateUTC
2013-06-27 00:00:00,84.4,73.1,29.78,SW,214,5.0,10.0,69,0.00,CLR,,0.00,0.0,WeatherDisplay:10.37,2013-06-27 05:00:00,
2013-06-27 00:10:00,84.3,73.0,29.80,SW,222,5.0,9.0,69,0.00,CLR,,0.00,0.0,WeatherDisplay:10.37,2013-06-27 05:10:00,
2013-06-27 00:20:00,84.3,73.4,29.79,SW,217,6.0,12.0,70,0.00,CLR,,0.00,0.0,WeatherDisplay:10.37,2013-06-27 05:20:00,
2013-06-27 00:30:00,84.1,73.3,29.78,SW,227,6.0,12.0,70,0.00,CLR,,0.00,0.0,WeatherDisplay:10.37,2013-06-27 05:30:00,
2013-06-27 00:40:00,83.8,73.4,29.78,SSW,206,5.0,10.0,71,0.00,CLR,,0.00,0.0,WeatherDisplay:10.37,2013-06-27 05:40:00,
2013-06-27 00:50:00,83.6,73.2,29.78,SW,216,3.0,11.0,71,0.00,CLR,,0.00,0.0,WeatherDisplay:10.37,2013-06-27 05:50:00,
2013-06-27 01:00:00,83.4,73.4,29.79,SW,217,1.0,9.0,72,0.00,CLR,,0.00,0.0,WeatherDisplay:10.37,2013-06-27 06:00:00,
2013-06-27 01:10:00,83.2,73.2,29.79,SSW,194,2.0,5.0,72,0.00,CLR,,0.00,0.0,WeatherDisplay:10.37,2013-06-27 06:10:00,
2013-06-27 01:20:00,83.1,73.6,29.80,South,186,2.0,9.0,73,0.00,CLR,,0.00,0.0,WeatherDisplay:10.37,2013-06-27 06:20:00,
2013-06-27 01:30:00,82.8,73.3,29.80,SSE,159,1.0,2.0,73,0.00,CLR,,0.00,0.0,WeatherDisplay:10.37,2013-06-27 06:30:00,
2013-06-27 01:40:00,82.4,73.3,29.80,SE,128,0.0,3.0,74,0.00,CLR,,0.00,0.0,WeatherDisplay:10.37,2013-06-27 06:40:00,
2013-06-27 01:50:00,81.9,73.2,29.79,SSE,148,0.0,2.0,75,0.00,CLR,,0.00,0.0,WeatherDisplay:10.37,2013-06-27 06:50:00,
2013-06-27 02:00:00,81.6,72.9,29.81,East,86,2.0,4.0,75,0.00,CLR,,0.00,0.0,WeatherDisplay:10.37,2013-06-27 07:00:00,
2013-06-27 02:10:00,81.4,73.1,29.81,East,79,2.0,4.0,76,0.00,CLR,,0.00,0.0,WeatherDisplay:10.37,2013-06-27 07:10:00,
2013-06-27 02:20:00,81.3,73.0,29.81,ESE,110,2.0,7.0,76,0.00,CLR,,0.00,0.0,WeatherDisplay:10.37,2013-06-27 07:20:00,
2013-06-27 02:30:00,81.3,72.6,29.81,SE,129,1.0,5.0,75,0.00,CLR,,0.00,0.0,WeatherDisplay:10.37,2013-06-27 07:30:00,
2013-06-27 02:40:00,81.0,72.3,29.81,ESE,110,1.0,5.0,75,0.00,CLR,,0.00,0.0,WeatherDisplay:10.37,2013-06-27 07:40:00,
2013-06-27 02:50:00,80.2,71.9,29.81,ESE,109,5.0,12.0,76,0.00,CLR,,0.00,0.0,WeatherDisplay:10.37,2013-06-27 07:50:00,
2013-06-27 03:00:00,79.0,71.9,29.81,SE,130,2.0,6.0,79,0.00,CLR,,0.00,0.0,WeatherDisplay:10.37,2013-06-27 08:00:00,
2013-06-27 03:10:00,78.9,71.8,29.80,SE,124,1.0,5.0,79,0.00,CLR,,0.00,0.0,WeatherDisplay:10.37,2013-06-27 08:10:00,
2013-06-27 03:20:00,78.7,72.0,29.80,SE,136,1.0,3.0,80,0.00,CLR,,0.00,0.0,WeatherDisplay:10.37,2013-06-27 08:20:00,
2013-06-27 03:30:00,78.1,71.5,29.80,South,179,0.0,2.0,80,0.00,CLR,,0.00,0.0,WeatherDisplay:10.37,2013-06-27 08:30:00,
2013-06-27 03:40:00,77.9,71.6,29.80,ESE,116,1.0,3.0,81,0.00,CLR,,0.00,0.0,WeatherDisplay:10.37,2013-06-27 08:40:00,
2013-06-27 03:50:00,77.7,71.7,29.80,ESE,116,1.0,2.0,82,0.00,CLR,,0.00,0.0,WeatherDisplay:10.37,2013-06-27 08:50:00,
2013-06-27 04:00:00,77.3,71.4,29.79,ESE,110,0.0,2.0,82,0.00,CLR,,0.00,0.0,WeatherDisplay:10.37,2013-06-27 09:00:00,
2013-06-27 04:10:00,76.7,71.1,29.79,ESE,109,0.0,2.0,83,0.00,CLR,,0.00,0.0,WeatherDisplay:10.37,2013-06-27 09:10:00,
2013-06-27 04:20:00,76.1,70.9,29.79,ESE,118,0.0,0.0,84,0.00,SCT,,0.00,0.0,WeatherDisplay:10.37,2013-06-27 09:20:00,
2013-06-27 04:30:00,75.7,70.8,29.79,ESE,118,0.0,0.0,85,0.00,SCT,,0.00,0.0,WeatherDisplay:10.37,2013-06-27 09:30:00,
2013-06-27 04:40:00,75.3,70.8,29.79,ESE,118,0.0,1.0,86,0.00,SCT,,0.00,0.0,WeatherDisplay:10.37,2013-06-27 09:40:00,
2013-06-27 04:50:00,75.0,70.9,29.79,ESE,119,0.0,1.0,87,0.00,SCT,,0.00,0.0,WeatherDisplay:10.37,2013-06-27 09:50:00,
2013-06-27 05:00:00,75.0,71.2,29.79,ESE,119,0.0,1.0,88,0.00,CLR,,0.00,0.0,WeatherDisplay:10.37,2013-06-27 10:00:00,
2013-06-27 05:10:00,75.1,71.3,29.79,ESE,119,0.0,1.0,88,0.00,CLR,,0.00,0.0,WeatherDisplay:10.37,2013-06-27 10:10:00,
2013-06-27 05:20:00,75.3,71.5,29.79,South,171,1.0,1.0,88,0.00,CLR,,0.00,0.0,WeatherDisplay:10.37,2013-06-27 10:20:00,
2013-06-27 05:30:00,75.5,72.0,29.80,South,178,1.0,1.0,89,0.00,CLR,,0.00,0.0,WeatherDisplay:10.37,2013-06-27 10:30:00,
2013-06-27 05:40:00,75.8,72.0,29.80,SW,216,0.0,1.0,88,0.00,CLR,,0.00,0.0,WeatherDisplay:10.37,2013-06-27 10:40:00,
2013-06-27 05:50:00,75.7,72.2,29.80,South,189,0.0,1.0,89,0.00,CLR,,0.00,0.0,WeatherDisplay:10.37,2013-06-27 10:50:00,
2013-06-27 06:00:00,75.7,72.3,29.81,South,187,0.0,1.0,89,0.00,CLR,,0.00,0.0,WeatherDisplay:10.37,2013-06-27 11:00:00,
2013-06-27 06:10:00,75.9,72.5,29.81,SSW,206,0.0,2.0,89,0.00,CLR,,0.00,0.0,WeatherDisplay:10.37,2013-06-27 11:10:00,
2013-06-27 06:20:00,76.3,73.1,29.81,West,260,1.0,3.0,90,0.00,CLR,,0.00,0.0,WeatherDisplay:10.37,2013-06-27 11:20:00,
2013-06-27 06:30:00,76.9,73.4,29.81,WSW,241,0.0,2.0,89,0.00,CLR,,0.00,0.0,WeatherDisplay:10.37,2013-06-27 11:30:00,
2013-06-27 06:40:00,77.4,73.6,29.80,WSW,242,0.0,1.0,88,0.00,CLR,,0.00,0.0,WeatherDisplay:10.37,2013-06-27 11:40:00,
2013-06-27 06:50:00,78.3,74.4,29.80,WSW,248,1.0,4.0,88,0.00,CLR,,0.00,0.0,WeatherDisplay:10.37,2013-06-27 11:50:00,
2013-06-27 07:00:00,79.3,74.7,29.80,WSW,246,2.0,5.0,86,0.00,CLR,,0.00,0.0,WeatherDisplay:10.37,2013-06-27 12:00:00,
2013-06-27 07:10:00,80.2,75.3,29.81,West,263,2.0,5.0,85,0.00,CLR,,0.00,0.0,WeatherDisplay:10.37,2013-06-27 12:10:00,
2013-06-27 07:20:00,81.1,75.9,29.81,West,267,1.0,4.0,84,0.00,CLR,,0.00,0.0,WeatherDisplay:10.37,2013-06-27 12:20:00,
2013-06-27 07:30:00,81.9,75.9,29.81,WSW,254,2.0,6.0,82,0.00,CLR,,0.00,0.0,WeatherDisplay:10.37,2013-06-27 12:30:00,
2013-06-27 07:40:00,82.9,76.1,29.82,West,264,1.0,6.0,80,0.00,CLR,,0.00,0.0,WeatherDisplay:10.37,2013-06-27 12:40:00,
2013-06-27 07:50:00,83.7,75.7,29.82,WNW,296,3.0,7.0,77,0.00,CLR,,0.00,0.0,WeatherDisplay:10.37,2013-06-27 12:50:00,
2013-06-27 08:00:00,84.1,75.3,29.82,WNW,303,5.0,8.0,75,0.00,CLR,,0.00,0.0,WeatherDisplay:10.37,2013-06-27 13:00:00,
2013-06-27 08:10:00,84.2,75.0,29.83,NW,316,3.0,9.0,74,0.00,CLR,,0.00,0.0,WeatherDisplay:10.37,2013-06-27 13:10:00,
2013-06-27 08:20:00,84.8,75.2,29.83,WNW,298,3.0,9.0,73,0.00,CLR,,0.00,0.0,WeatherDisplay:10.37,2013-06-27 13:20:00,
2013-06-27 08:30:00,84.9,74.9,29.83,NNW,328,5.0,9.0,72,0.00,CLR,,0.00,0.0,WeatherDisplay:10.37,2013-06-27 13:30:00,
2013-06-27 08:40:00,85.3,75.2,29.83,NW,321,3.0,9.0,72,0.00,CLR,,0.00,0.0,WeatherDisplay:10.37,2013-06-27 13:40:00,
2013-06-27 08:50:00,86.3,75.7,29.83,WNW,297,3.0,8.0,71,0.00,CLR,,0.00,0.0,WeatherDisplay:10.37,2013-06-27 13:50:00,
2013-06-27 09:00:00,86.4,75.0,29.83,NW,322,6.0,9.0,69,0.00,CLR,,0.00,0.0,WeatherDisplay:10.37,2013-06-27 14:00:00,
2013-06-27 09:10:00,86.6,75.2,29.83,NW,316,3.0,8.0,69,0.00,CLR,,0.00,0.0,WeatherDisplay:10.37,2013-06-27 14:10:00,
2013-06-27 09:20:00,87.2,74.5,29.83,NW,309,3.0,9.0,66,0.00,CLR,,0.00,0.0,WeatherDisplay:10.37,2013-06-27 14:20:00,
2013-06-27 09:30:00,87.4,74.6,29.83,NNW,344,3.0,12.0,66,0.00,CLR,,0.00,0.0,WeatherDisplay:10.37,2013-06-27 14:30:00,
2013-06-27 09:40:00,88.3,74.5,29.83,NW,321,6.0,10.0,64,0.00,CLR,,0.00,0.0,WeatherDisplay:10.37,2013-06-27 14:40:00,
2013-06-27 09:50:00,88.5,73.8,29.83,NW,315,5.0,10.0,62,0.00,CLR,,0.00,0.0,WeatherDisplay:10.37,2013-06-27 14:50:00,
2013-06-27 10:00:00,88.6,73.9,29.83,NW,325,8.0,12.0,62,0.00,CLR,,0.00,0.0,WeatherDisplay:10.37,2013-06-27 15:00:00,
2013-06-27 10:10:00,89.0,74.3,29.83,NNW,327,6.0,10.0,62,0.00,CLR,,0.00,0.0,WeatherDisplay:10.37,2013-06-27 15:10:00,
2013-06-27 10:20:00,89.8,73.6,29.83,NW,319,5.0,9.0,59,0.00,CLR,,0.00,0.0,WeatherDisplay:10.37,2013-06-27 15:20:00,
2013-06-27 10:30:00,90.6,72.7,29.83,NW,317,7.0,12.0,56,0.00,FEW,,0.00,0.0,WeatherDisplay:10.37,2013-06-27 15:30:00,
2013-06-27 10:40:00,90.9,74.1,29.83,NW,317,3.0,12.0,58,0.00,FEW,,0.00,0.0,WeatherDisplay:10.37,2013-06-27 15:40:00,
2013-06-27 10:50:00,90.6,72.8,29.83,NNW,329,6.0,13.0,56,0.00,CLR,,0.00,0.0,WeatherDisplay:10.37,2013-06-27 15:50:00,
2013-06-27 11:00:00,91.5,72.5,29.83,NW,319,6.0,13.0,54,0.00,CLR,,0.00,0.0,WeatherDisplay:10.37,2013-06-27 16:00:00,
2013-06-27 11:10:00,93.1,74.5,29.83,WSW,252,2.0,8.0,55,0.00,CLR,,0.00,0.0,WeatherDisplay:10.37,2013-06-27 16:10:00,
2013-06-27 11:20:00,93.9,73.6,29.83,West,264,3.0,7.0,52,0.00,CLR,,0.00,0.0,WeatherDisplay:10.37,2013-06-27 16:20:00,
2013-06-27 11:30:00,94.2,71.5,29.82,WNW,303,6.0,12.0,48,0.00,CLR,,0.00,0.0,WeatherDisplay:10.37,2013-06-27 16:30:00,
2013-06-27 11:40:00,94.2,73.3,29.82,WNW,300,5.0,13.0,51,0.00,CLR,,0.00,0.0,WeatherDisplay:10.37,2013-06-27 16:40:00,
2013-06-27 11:50:00,94.3,71.6,29.82,NW,306,5.0,10.0,48,0.00,CLR,,0.00,0.0,WeatherDisplay:10.37,2013-06-27 16:50:00,
2013-06-27 12:00:00,94.5,71.2,29.83,WNW,301,6.0,10.0,47,0.00,CLR,,0.00,0.0,WeatherDisplay:10.37,2013-06-27 17:00:00,
2013-06-27 12:10:00,94.2,73.9,29.83,NW,309,3.0,13.0,52,0.00,CLR,,0.00,0.0,WeatherDisplay:10.37,2013-06-27 17:10:00,
2013-06-27 12:20:00,95.4,72.6,29.82,West,266,3.0,12.0,48,0.00,CLR,,0.00,0.0,WeatherDisplay:10.37,2013-06-27 17:20:00,
2013-06-27 12:30:00,95.4,72.0,29.82,WNW,300,5.0,10.0,47,0.00,CLR,,0.00,0.0,WeatherDisplay:10.37,2013-06-27 17:30:00,
2013-06-27 12:40:00,96.0,73.1,29.82,West,265,3.0,10.0,48,0.00,CLR,,0.00,0.0,WeatherDisplay:10.37,2013-06-27 17:40:00,
2013-06-27 12:50:00,96.1,71.3,29.82,WSW,244,3.0,8.0,45,0.00,CLR,,0.00,0.0,WeatherDisplay:10.37,2013-06-27 17:50:00,
2013-06-27 13:00:00,96.2,70.7,29.82,WNW,291,6.0,9.0,44,0.00,CLR,,0.00,0.0,WeatherDisplay:10.37,2013-06-27 18:00:00,
2013-06-27 13:10:00,96.4,69.6,29.82,WNW,285,3.0,12.0,42,0.00,CLR,,0.00,0.0,WeatherDisplay:10.37,2013-06-27 18:10:00,
2013-06-27 13:20:00,97.0,71.5,29.82,WNW,296,3.0,8.0,44,0.00,CLR,,0.00,0.0,WeatherDisplay:10.37,2013-06-27 18:20:00,
2013-06-27 13:30:00,97.8,70.1,29.82,WNW,290,6.0,12.0,41,0.00,CLR,,0.00,0.0,WeatherDisplay:10.37,2013-06-27 18:30:00,
2013-06-27 13:40:00,97.1,70.2,29.82,WNW,298,6.0,13.0,42,0.00,CLR,,0.00,0.0,WeatherDisplay:10.37,2013-06-27 18:40:00,
2013-06-27 13:50:00,97.4,67.5,29.82,NW,310,7.0,14.0,38,0.00,CLR,,0.00,0.0,WeatherDisplay:10.37,2013-06-27 18:50:00,
2013-06-27 14:00:00,96.5,67.5,29.82,NNW,331,7.0,16.0,39,0.00,CLR,,0.00,0.0,WeatherDisplay:10.37,2013-06-27 19:00:00,
2013-06-27 14:10:00,96.8,68.5,29.82,NW,324,8.0,14.0,40,0.00,CLR,,0.00,0.0,WeatherDisplay:10.37,2013-06-27 19:10:00,
2013-06-27 14:20:00,96.8,67.0,29.82,NW,322,9.0,17.0,38,0.00,CLR,,0.00,0.0,WeatherDisplay:10.37,2013-06-27 19:20:00,
2013-06-27 14:30:00,97.6,66.9,29.81,NW,316,5.0,13.0,37,0.00,CLR,,0.00,0.0,WeatherDisplay:10.37,2013-06-27 19:30:00,
2013-06-27 14:40:00,97.1,66.5,29.82,NW,319,8.0,15.0,37,0.00,CLR,,0.00,0.0,WeatherDisplay:10.37,2013-06-27 19:40:00,
2013-06-27 14:50:00,97.6,66.9,29.82,NW,321,7.0,13.0,37,0.00,CLR,,0.00,0.0,WeatherDisplay:10.37,2013-06-27 19:50:00,
2013-06-27 15:00:00,98.3,67.5,29.82,NW,310,7.0,12.0,37,0.00,CLR,,0.00,0.0,WeatherDisplay:10.37,2013-06-27 20:00:00,
2013-06-27 15:10:00,98.3,66.8,29.82,NW,314,5.0,16.0,36,0.00,CLR,,0.00,0.0,WeatherDisplay:10.37,2013-06-27 20:10:00,
2013-06-27 15:20:00,98.3,67.5,29.82,NW,314,5.0,16.0,37,0.00,CLR,,0.00,0.0,WeatherDisplay:10.37,2013-06-27 20:20:00,
2013-06-27 15:30:00,98.6,67.8,29.81,WNW,303,5.0,9.0,37,0.00,CLR,,0.00,0.0,WeatherDisplay:10.37,2013-06-27 20:30:00,
2013-06-27 15:40:00,99.2,68.4,29.81,WNW,292,5.0,10.0,37,0.00,CLR,,0.00,0.0,WeatherDisplay:10.37,2013-06-27 20:40:00,
2013-06-27 15:50:00,98.8,67.2,29.81,NW,321,8.0,12.0,36,0.00,CLR,,0.00,0.0,WeatherDisplay:10.37,2013-06-27 20:50:00,
2013-06-27 16:00:00,98.9,65.7,29.81,North,351,8.0,12.0,34,0.00,CLR,,0.00,0.0,WeatherDisplay:10.37,2013-06-27 21:00:00,
2013-06-27 16:10:00,98.3,65.9,29.80,North,7,7.0,12.0,35,0.00,CLR,,0.00,0.0,WeatherDisplay:10.37,2013-06-27 21:10:00,
2013-06-27 16:20:00,98.4,66.1,29.80,NNE,17,5.0,12.0,35,0.00,CLR,,0.00,0.0,WeatherDisplay:10.37,2013-06-27 21:20:00,
2013-06-27 16:30:00,98.0,67.3,29.81,NE,38,8.0,12.0,37,0.00,CLR,,0.00,0.0,WeatherDisplay:10.37,2013-06-27 21:30:00,
2013-06-27 16:50:00,97.2,65.0,29.81,NNE,24,8.0,16.0,35,0.00,CLR,,0.00,0.0,WeatherDisplay:10.37,2013-06-27 21:50:00,
2013-06-27 17:00:00,96.8,64.6,29.80,NNE,16,8.0,14.0,35,0.00,CLR,,0.00,0.0,WeatherDisplay:10.37,2013-06-27 22:00:00,
2013-06-27 17:10:00,96.6,64.5,29.80,NNE,20,6.0,13.0,35,0.00,CLR,,0.00,0.0,WeatherDisplay:10.37,2013-06-27 22:10:00,
2013-06-27 17:20:00,96.5,64.4,29.80,NNE,22,8.0,13.0,35,0.00,CLR,,0.00,0.0,WeatherDisplay:10.37,2013-06-27 22:20:00,
2013-06-27 17:30:00,96.2,64.9,29.80,NNE,15,8.0,12.0,36,0.00,CLR,,0.00,0.0,WeatherDisplay:10.37,2013-06-27 22:30:00,
2013-06-27 17:40:00,95.6,65.9,29.79,NNE,18,6.0,13.0,38,0.00,CLR,,0.00,0.0,WeatherDisplay:10.37,2013-06-27 22:40:00,
2013-06-27 17:50:00,95.5,66.6,29.80,North,10,5.0,12.0,39,0.00,CLR,,0.00,0.0,WeatherDisplay:10.37,2013-06-27 22:50:00,
2013-06-27 18:00:00,95.4,66.5,29.79,NNE,20,5.0,12.0,39,0.00,CLR,,0.00,0.0,WeatherDisplay:10.37,2013-06-27 23:00:00,
2013-06-27 18:10:00,95.0,65.4,29.79,NNE,31,6.0,13.0,38,0.00,CLR,,0.00,0.0,WeatherDisplay:10.37,2013-06-27 23:10:00,
2013-06-27 18:20:00,94.7,65.9,29.79,NNE,25,5.0,9.0,39,0.00,CLR,,0.00,0.0,WeatherDisplay:10.37,2013-06-27 23:20:00,
2013-06-27 18:30:00,94.6,66.5,29.80,NNE,19,5.0,9.0,40,0.00,CLR,,0.00,0.0,WeatherDisplay:10.37,2013-06-27 23:30:00,
2013-06-27 18:40:00,94.4,67.1,29.80,North,6,3.0,7.0,41,0.00,CLR,,0.00,0.0,WeatherDisplay:10.37,2013-06-27 23:40:00,
2013-06-27 18:50:00,94.3,66.9,29.80,North,10,2.0,6.0,41,0.00,CLR,,0.00,0.0,WeatherDisplay:10.37,2013-06-27 23:50:00,
2013-06-27 19:00:00,93.8,67.2,29.80,NNE,13,2.0,5.0,42,0.00,CLR,,0.00,0.0,WeatherDisplay:10.37,2013-06-28 00:00:00,
2013-06-27 19:10:00,93.8,67.3,29.79,North,7,3.0,5.0,42,0.00,CLR,,0.00,0.0,WeatherDisplay:10.37,2013-06-28 00:10:00,
2013-06-27 19:20:00,93.3,67.5,29.79,North,349,3.0,5.0,43,0.00,CLR,,0.00,0.0,WeatherDisplay:10.37,2013-06-28 00:20:00,
2013-06-27 19:30:00,92.8,68.3,29.80,NNW,329,0.0,5.0,45,0.00,CLR,,0.00,0.0,WeatherDisplay:10.37,2013-06-28 00:30:00,
2013-06-27 19:40:00,92.7,68.2,29.79,SW,222,0.0,1.0,45,0.00,CLR,,0.00,0.0,WeatherDisplay:10.37,2013-06-28 00:40:00,
2013-06-27 19:50:00,92.5,69.3,29.78,SW,232,0.0,1.0,47,0.00,CLR,,0.00,0.0,WeatherDisplay:10.37,2013-06-28 00:50:00,
2013-06-27 20:00:00,90.8,69.6,29.78,SW,222,0.0,1.0,50,0.00,CLR,,0.00,0.0,WeatherDisplay:10.37,2013-06-28 01:00:00,
2013-06-27 20:10:00,89.6,69.1,29.78,SSW,210,0.0,1.0,51,0.00,CLR,,0.00,0.0,WeatherDisplay:10.37,2013-06-28 01:10:00,
2013-06-27 20:20:00,88.1,69.4,29.78,SSW,210,0.0,1.0,54,0.00,CLR,,0.00,0.0,WeatherDisplay:10.37,2013-06-28 01:20:00,
2013-06-27 20:30:00,86.6,69.6,29.78,SSW,213,0.0,1.0,57,0.00,CLR,,0.00,0.0,WeatherDisplay:10.37,2013-06-28 01:30:00,
2013-06-27 20:40:00,85.5,69.0,29.77,South,189,1.0,2.0,58,0.00,CLR,,0.00,0.0,WeatherDisplay:10.37,2013-06-28 01:40:00,
2013-06-27 20:50:00,85.2,69.3,29.76,SSE,150,0.0,1.0,59,0.00,CLR,,0.00,0.0,WeatherDisplay:10.37,2013-06-28 01:50:00,
2013-06-27 21:00:00,84.7,69.3,29.76,SSE,150,0.0,1.0,60,0.00,SCT,,0.00,0.0,WeatherDisplay:10.37,2013-06-28 02:00:00,
2013-06-27 21:10:00,84.1,69.7,29.76,SSE,150,0.0,0.0,62,0.00,SCT,,0.00,0.0,WeatherDisplay:10.37,2013-06-28 02:10:00,
2013-06-27 21:20:00,83.8,68.9,29.77,SSE,150,0.0,0.0,61,0.00,SCT,,0.00,0.0,WeatherDisplay:10.37,2013-06-28 02:20:00,
2013-06-27 21:30:00,83.0,69.5,29.77,SSE,150,0.0,0.0,64,0.00,CLR,,0.00,0.0,WeatherDisplay:10.37,2013-06-28 02:30:00,
2013-06-27 21:40:00,82.7,69.7,29.77,SSE,150,0.0,0.0,65,0.00,CLR,,0.00,0.0,WeatherDisplay:10.37,2013-06-28 02:40:00,
2013-06-27 21:50:00,82.8,69.3,29.77,SSE,150,0.0,0.0,64,0.00,CLR,,0.00,0.0,WeatherDisplay:10.37,2013-06-28 02:50:00,
2013-06-27 22:00:00,82.1,70.1,29.76,SSE,147,0.0,1.0,67,0.00,CLR,,0.00,0.0,WeatherDisplay:10.37,2013-06-28 03:00:00,
2013-06-27 22:10:00,81.6,70.0,29.75,SE,139,0.0,1.0,68,0.00,CLR,,0.00,0.0,WeatherDisplay:10.37,2013-06-28 03:10:00,
2013-06-27 22:20:00,80.8,69.7,29.76,SE,140,0.0,0.0,69,0.00,CLR,,0.00,0.0,WeatherDisplay:10.37,2013-06-28 03:20:00,
2013-06-27 22:30:00,79.4,70.4,29.75,SE,140,0.0,0.0,74,0.00,CLR,,0.00,0.0,WeatherDisplay:10.37,2013-06-28 03:30:00,
2013-06-27 22:40:00,79.5,70.1,29.76,SE,139,0.0,0.0,73,0.00,CLR,,0.00,0.0,WeatherDisplay:10.37,2013-06-28 03:40:00,
2013-06-27 22:50:00,80.1,69.8,29.76,SE,140,0.0,0.0,71,0.00,CLR,,0.00,0.0,WeatherDisplay:10.37,2013-06-28 03:50:00,
2013-06-27 23:00:00,80.1,69.8,29.76,SE,140,0.0,0.0,71,0.00,CLR,,0.00,0.0,WeatherDisplay:10.37,2013-06-28 04:00:00,
2013-06-27 23:10:00,79.8,69.2,29.76,SE,140,0.0,0.0,70,0.00,CLR,,0.00,0.0,WeatherDisplay:10.37,2013-06-28 04:10:00,
2013-06-27 23:20:00,79.1,70.1,29.77,SSE,154,0.0,1.0,74,0.00,CLR,,0.00,0.0,WeatherDisplay:10.37,2013-06-28 04:20:00,
2013-06-27 23:30:00,78.6,70.0,29.78,South,172,0.0,1.0,75,0.00,CLR,,0.00,0.0,WeatherDisplay:10.37,2013-06-28 04:30:00,
2013-06-27 23:40:00,78.6,70.4,29.79,South,172,0.0,0.0,76,0.00,CLR,,0.00,0.0,WeatherDisplay:10.37,2013-06-28 04:40:00,
2013-06-27 23:50:00,78.5,70.3,29.79,South,172,0.0,0.0,76,0.00,CLR,,0.00,0.0,WeatherDisplay:10.37,2013-06-28 04:50:00,